sensor_id;sensor_type;location;lat;lon;timestamp;temperature;humidity
7206;DHT22;3644;53.480;10.004;2023-03-05T00:01:12;5.30;99.90
7206;DHT22;3644;53.480;10.004;2023-03-05T00:03:38;5.30;99.90
7206;DHT22;3644;53.480;10.004;2023-03-05T00:06:03;5.30;99.90
7206;DHT22;3644;53.480;10.004;2023-03-05T00:08:29;5.20;99.90
7206;DHT22;3644;53.480;10.004;2023-03-05T00:11:04;5.30;99.90
7206;DHT22;3644;53.480;10.004;2023-03-05T00:13:31;5.40;99.90
7206;DHT22;3644;53.480;10.004;2023-03-05T00:15:57;5.30;99.90
7206;DHT22;3644;53.480;10.004;2023-03-05T00:18:23;5.40;99.90
7206;DHT22;3644;53.480;10.004;2023-03-05T00:20:48;5.40;99.90
7206;DHT22;3644;53.480;10.004;2023-03-05T00:23:14;5.30;99.90
7206;DHT22;3644;53.480;10.004;2023-03-05T00:25:40;5.10;99.90
7206;DHT22;3644;53.480;10.004;2023-03-05T00:28:06;5.10;99.90
7206;DHT22;3644;53.480;10.004;2023-03-05T00:30:33;5.20;99.90
7206;DHT22;3644;53.480;10.004;2023-03-05T00:32:59;5.20;99.90
7206;DHT22;3644;53.480;10.004;2023-03-05T00:35:25;5.20;99.90
7206;DHT22;3644;53.480;10.004;2023-03-05T00:37:50;5.20;99.90
7206;DHT22;3644;53.480;10.004;2023-03-05T00:40:16;5.20;99.90
7206;DHT22;3644;53.480;10.004;2023-03-05T00:42:42;5.40;99.90
7206;DHT22;3644;53.480;10.004;2023-03-05T00:45:08;5.30;99.90
7206;DHT22;3644;53.480;10.004;2023-03-05T00:47:35;5.20;99.90
7206;DHT22;3644;53.480;10.004;2023-03-05T00:50:01;5.30;99.90
7206;DHT22;3644;53.480;10.004;2023-03-05T00:52:27;5.30;99.90
7206;DHT22;3644;53.480;10.004;2023-03-05T00:54:52;5.30;99.90
7206;DHT22;3644;53.480;10.004;2023-03-05T00:57:18;5.20;99.90
7206;DHT22;3644;53.480;10.004;2023-03-05T00:59:43;5.10;99.90
7206;DHT22;3644;53.480;10.004;2023-03-05T01:02:09;5.20;99.90
7206;DHT22;3644;53.480;10.004;2023-03-05T01:04:35;4.90;99.90
7206;DHT22;3644;53.480;10.004;2023-03-05T01:07:00;4.90;99.90
7206;DHT22;3644;53.480;10.004;2023-03-05T01:09:26;4.90;99.90
7206;DHT22;3644;53.480;10.004;2023-03-05T01:11:52;4.90;99.90
7206;DHT22;3644;53.480;10.004;2023-03-05T01:14:18;5.00;99.90
7206;DHT22;3644;53.480;10.004;2023-03-05T01:16:44;5.10;99.90
7206;DHT22;3644;53.480;10.004;2023-03-05T01:19:11;5.20;99.90
7206;DHT22;3644;53.480;10.004;2023-03-05T01:21:37;5.10;99.90
7206;DHT22;3644;53.480;10.004;2023-03-05T01:24:03;5.00;99.90
7206;DHT22;3644;53.480;10.004;2023-03-05T01:26:29;4.90;99.90
7206;DHT22;3644;53.480;10.004;2023-03-05T01:28:54;4.90;99.90
7206;DHT22;3644;53.480;10.004;2023-03-05T01:31:20;4.70;99.90
7206;DHT22;3644;53.480;10.004;2023-03-05T01:33:46;4.80;99.90
7206;DHT22;3644;53.480;10.004;2023-03-05T01:36:13;4.70;99.90
7206;DHT22;3644;53.480;10.004;2023-03-05T01:38:45;4.60;99.90
7206;DHT22;3644;53.480;10.004;2023-03-05T01:41:12;4.70;99.90
7206;DHT22;3644;53.480;10.004;2023-03-05T01:43:39;4.60;99.90
7206;DHT22;3644;53.480;10.004;2023-03-05T01:49:13;4.70;99.90
7206;DHT22;3644;53.480;10.004;2023-03-05T01:54:28;4.80;99.90
7206;DHT22;3644;53.480;10.004;2023-03-05T01:56:57;4.60;99.90
7206;DHT22;3644;53.480;10.004;2023-03-05T01:59:24;4.60;99.90
7206;DHT22;3644;53.480;10.004;2023-03-05T02:01:55;4.50;99.90
7206;DHT22;3644;53.480;10.004;2023-03-05T02:04:23;4.60;99.90
7206;DHT22;3644;53.480;10.004;2023-03-05T02:06:51;4.50;99.90
7206;DHT22;3644;53.480;10.004;2023-03-05T02:09:18;4.70;99.90
7206;DHT22;3644;53.480;10.004;2023-03-05T02:11:47;4.70;99.90
7206;DHT22;3644;53.480;10.004;2023-03-05T02:14:13;4.60;99.90
7206;DHT22;3644;53.480;10.004;2023-03-05T02:16:38;4.70;99.90
7206;DHT22;3644;53.480;10.004;2023-03-05T02:19:09;4.70;99.90
7206;DHT22;3644;53.480;10.004;2023-03-05T02:21:47;4.60;99.90
7206;DHT22;3644;53.480;10.004;2023-03-05T02:24:15;4.60;99.90
7206;DHT22;3644;53.480;10.004;2023-03-05T02:26:42;4.50;99.90
7206;DHT22;3644;53.480;10.004;2023-03-05T02:29:11;4.50;99.90
7206;DHT22;3644;53.480;10.004;2023-03-05T02:31:38;4.50;99.90
7206;DHT22;3644;53.480;10.004;2023-03-05T02:34:04;4.40;99.90
7206;DHT22;3644;53.480;10.004;2023-03-05T02:36:30;4.30;99.90
7206;DHT22;3644;53.480;10.004;2023-03-05T02:38:56;4.30;99.90
7206;DHT22;3644;53.480;10.004;2023-03-05T02:41:23;4.40;99.90
7206;DHT22;3644;53.480;10.004;2023-03-05T02:43:49;4.60;99.90
7206;DHT22;3644;53.480;10.004;2023-03-05T02:46:15;4.50;99.90
7206;DHT22;3644;53.480;10.004;2023-03-05T02:48:40;4.60;99.90
7206;DHT22;3644;53.480;10.004;2023-03-05T02:51:07;4.60;99.90
7206;DHT22;3644;53.480;10.004;2023-03-05T02:53:33;4.70;99.90
7206;DHT22;3644;53.480;10.004;2023-03-05T02:55:58;4.60;99.90
7206;DHT22;3644;53.480;10.004;2023-03-05T02:58:24;4.60;99.90
7206;DHT22;3644;53.480;10.004;2023-03-05T03:00:50;4.60;99.90
7206;DHT22;3644;53.480;10.004;2023-03-05T03:03:15;4.60;99.90
7206;DHT22;3644;53.480;10.004;2023-03-05T03:05:41;4.60;99.90
7206;DHT22;3644;53.480;10.004;2023-03-05T03:08:06;4.40;99.90
7206;DHT22;3644;53.480;10.004;2023-03-05T03:10:32;4.40;99.90
7206;DHT22;3644;53.480;10.004;2023-03-05T03:12:58;4.40;99.90
7206;DHT22;3644;53.480;10.004;2023-03-05T03:15:23;4.40;99.90
7206;DHT22;3644;53.480;10.004;2023-03-05T03:17:49;4.30;99.90
7206;DHT22;3644;53.480;10.004;2023-03-05T03:20:16;4.30;99.90
7206;DHT22;3644;53.480;10.004;2023-03-05T03:22:44;4.20;99.90
7206;DHT22;3644;53.480;10.004;2023-03-05T03:25:15;4.20;99.90
7206;DHT22;3644;53.480;10.004;2023-03-05T03:27:41;4.10;99.90
7206;DHT22;3644;53.480;10.004;2023-03-05T03:30:07;4.30;99.90
7206;DHT22;3644;53.480;10.004;2023-03-05T03:32:33;4.20;99.90
7206;DHT22;3644;53.480;10.004;2023-03-05T03:34:59;4.20;99.90
7206;DHT22;3644;53.480;10.004;2023-03-05T03:37:25;4.20;99.90
7206;DHT22;3644;53.480;10.004;2023-03-05T03:39:51;4.20;99.90
7206;DHT22;3644;53.480;10.004;2023-03-05T03:42:21;4.20;99.90
7206;DHT22;3644;53.480;10.004;2023-03-05T03:44:47;4.30;99.90
7206;DHT22;3644;53.480;10.004;2023-03-05T03:47:13;4.30;99.90
7206;DHT22;3644;53.480;10.004;2023-03-05T03:49:38;4.30;99.90
7206;DHT22;3644;53.480;10.004;2023-03-05T03:52:04;4.50;99.90
7206;DHT22;3644;53.480;10.004;2023-03-05T03:54:29;4.40;99.90
7206;DHT22;3644;53.480;10.004;2023-03-05T03:56:55;4.40;99.90
7206;DHT22;3644;53.480;10.004;2023-03-05T03:59:21;4.30;99.90
7206;DHT22;3644;53.480;10.004;2023-03-05T04:01:46;4.30;99.90
7206;DHT22;3644;53.480;10.004;2023-03-05T04:04:12;4.10;99.90
7206;DHT22;3644;53.480;10.004;2023-03-05T04:06:38;4.00;99.90
7206;DHT22;3644;53.480;10.004;2023-03-05T04:09:04;4.00;99.90
7206;DHT22;3644;53.480;10.004;2023-03-05T04:11:30;3.90;99.90
7206;DHT22;3644;53.480;10.004;2023-03-05T04:13:55;3.80;99.90
7206;DHT22;3644;53.480;10.004;2023-03-05T04:16:21;3.90;99.90
7206;DHT22;3644;53.480;10.004;2023-03-05T04:18:47;3.90;99.90
7206;DHT22;3644;53.480;10.004;2023-03-05T04:21:12;4.00;99.90
7206;DHT22;3644;53.480;10.004;2023-03-05T04:23:38;4.00;99.90
7206;DHT22;3644;53.480;10.004;2023-03-05T04:26:04;4.10;99.90
7206;DHT22;3644;53.480;10.004;2023-03-05T04:28:30;4.20;99.90
7206;DHT22;3644;53.480;10.004;2023-03-05T04:30:56;4.20;99.90
7206;DHT22;3644;53.480;10.004;2023-03-05T04:33:21;4.10;99.90
7206;DHT22;3644;53.480;10.004;2023-03-05T04:35:47;4.00;99.90
7206;DHT22;3644;53.480;10.004;2023-03-05T04:38:12;4.00;99.90
7206;DHT22;3644;53.480;10.004;2023-03-05T04:40:38;3.90;99.90
7206;DHT22;3644;53.480;10.004;2023-03-05T04:43:04;4.00;99.90
7206;DHT22;3644;53.480;10.004;2023-03-05T04:45:30;4.00;99.90
7206;DHT22;3644;53.480;10.004;2023-03-05T04:47:56;4.10;99.90
7206;DHT22;3644;53.480;10.004;2023-03-05T04:50:21;4.00;99.90
7206;DHT22;3644;53.480;10.004;2023-03-05T04:52:47;4.10;99.90
7206;DHT22;3644;53.480;10.004;2023-03-05T04:55:14;4.10;99.90
7206;DHT22;3644;53.480;10.004;2023-03-05T04:57:40;4.10;99.90
7206;DHT22;3644;53.480;10.004;2023-03-05T05:00:11;4.10;99.90
7206;DHT22;3644;53.480;10.004;2023-03-05T05:02:45;4.10;99.90
7206;DHT22;3644;53.480;10.004;2023-03-05T05:05:14;4.10;99.90
7206;DHT22;3644;53.480;10.004;2023-03-05T05:07:40;4.00;99.90
7206;DHT22;3644;53.480;10.004;2023-03-05T05:10:06;4.00;99.90
7206;DHT22;3644;53.480;10.004;2023-03-05T05:12:32;3.90;99.90
7206;DHT22;3644;53.480;10.004;2023-03-05T05:14:58;3.90;99.90
7206;DHT22;3644;53.480;10.004;2023-03-05T05:17:24;3.80;99.90
7206;DHT22;3644;53.480;10.004;2023-03-05T05:19:49;3.90;99.90
7206;DHT22;3644;53.480;10.004;2023-03-05T05:22:15;4.00;99.90
7206;DHT22;3644;53.480;10.004;2023-03-05T05:24:41;4.00;99.90
7206;DHT22;3644;53.480;10.004;2023-03-05T05:27:06;3.90;99.90
7206;DHT22;3644;53.480;10.004;2023-03-05T05:29:32;3.90;99.90
7206;DHT22;3644;53.480;10.004;2023-03-05T05:31:57;3.90;99.90
7206;DHT22;3644;53.480;10.004;2023-03-05T05:34:23;4.00;99.90
7206;DHT22;3644;53.480;10.004;2023-03-05T05:36:50;4.00;99.90
7206;DHT22;3644;53.480;10.004;2023-03-05T05:39:16;4.00;99.90
7206;DHT22;3644;53.480;10.004;2023-03-05T05:41:41;3.90;99.90
7206;DHT22;3644;53.480;10.004;2023-03-05T05:44:07;3.90;99.90
7206;DHT22;3644;53.480;10.004;2023-03-05T05:46:32;4.00;99.90
7206;DHT22;3644;53.480;10.004;2023-03-05T05:48:58;4.00;99.90
7206;DHT22;3644;53.480;10.004;2023-03-05T05:51:23;4.00;99.90
7206;DHT22;3644;53.480;10.004;2023-03-05T05:53:49;4.00;99.90
7206;DHT22;3644;53.480;10.004;2023-03-05T05:56:15;3.90;99.90
7206;DHT22;3644;53.480;10.004;2023-03-05T05:58:41;4.00;99.90
7206;DHT22;3644;53.480;10.004;2023-03-05T06:01:29;3.90;99.90
7206;DHT22;3644;53.480;10.004;2023-03-05T06:03:55;3.90;99.90
7206;DHT22;3644;53.480;10.004;2023-03-05T06:06:22;3.90;99.90
7206;DHT22;3644;53.480;10.004;2023-03-05T06:08:48;3.90;99.90
7206;DHT22;3644;53.480;10.004;2023-03-05T06:11:14;3.90;99.90
7206;DHT22;3644;53.480;10.004;2023-03-05T06:13:40;3.90;99.90
7206;DHT22;3644;53.480;10.004;2023-03-05T06:16:09;4.10;99.90
7206;DHT22;3644;53.480;10.004;2023-03-05T06:18:35;4.20;99.90
7206;DHT22;3644;53.480;10.004;2023-03-05T06:21:03;4.20;99.90
7206;DHT22;3644;53.480;10.004;2023-03-05T06:23:29;4.00;99.90
7206;DHT22;3644;53.480;10.004;2023-03-05T06:25:58;4.00;99.90
7206;DHT22;3644;53.480;10.004;2023-03-05T06:28:24;3.90;99.90
7206;DHT22;3644;53.480;10.004;2023-03-05T06:30:50;3.90;99.90
7206;DHT22;3644;53.480;10.004;2023-03-05T06:33:15;3.90;99.90
7206;DHT22;3644;53.480;10.004;2023-03-05T06:35:41;3.90;99.90
7206;DHT22;3644;53.480;10.004;2023-03-05T06:38:07;3.90;99.90
7206;DHT22;3644;53.480;10.004;2023-03-05T06:40:34;3.90;99.90
7206;DHT22;3644;53.480;10.004;2023-03-05T06:42:59;3.90;99.90
7206;DHT22;3644;53.480;10.004;2023-03-05T06:45:25;4.00;99.90
7206;DHT22;3644;53.480;10.004;2023-03-05T06:47:51;4.10;99.90
7206;DHT22;3644;53.480;10.004;2023-03-05T06:50:16;4.20;99.90
7206;DHT22;3644;53.480;10.004;2023-03-05T06:52:42;4.00;99.90
7206;DHT22;3644;53.480;10.004;2023-03-05T06:55:08;4.10;99.90
7206;DHT22;3644;53.480;10.004;2023-03-05T06:57:35;4.10;99.90
7206;DHT22;3644;53.480;10.004;2023-03-05T07:00:03;4.20;99.90
7206;DHT22;3644;53.480;10.004;2023-03-05T07:02:32;4.30;99.90
7206;DHT22;3644;53.480;10.004;2023-03-05T07:04:57;4.30;99.90
7206;DHT22;3644;53.480;10.004;2023-03-05T07:07:23;4.40;99.90
7206;DHT22;3644;53.480;10.004;2023-03-05T07:09:48;4.30;99.90
7206;DHT22;3644;53.480;10.004;2023-03-05T07:12:14;4.20;99.90
7206;DHT22;3644;53.480;10.004;2023-03-05T07:14:40;4.20;99.90
7206;DHT22;3644;53.480;10.004;2023-03-05T07:17:06;4.30;99.90
7206;DHT22;3644;53.480;10.004;2023-03-05T07:19:32;4.30;99.90
7206;DHT22;3644;53.480;10.004;2023-03-05T07:21:58;4.30;99.90
7206;DHT22;3644;53.480;10.004;2023-03-05T07:24:23;4.30;99.90
7206;DHT22;3644;53.480;10.004;2023-03-05T07:26:55;4.30;99.90
7206;DHT22;3644;53.480;10.004;2023-03-05T07:29:21;4.40;99.90
7206;DHT22;3644;53.480;10.004;2023-03-05T07:31:48;4.40;99.90
7206;DHT22;3644;53.480;10.004;2023-03-05T07:34:13;4.50;99.90
7206;DHT22;3644;53.480;10.004;2023-03-05T07:36:39;4.60;99.90
7206;DHT22;3644;53.480;10.004;2023-03-05T07:39:05;4.70;99.90
7206;DHT22;3644;53.480;10.004;2023-03-05T07:41:30;4.60;99.90
7206;DHT22;3644;53.480;10.004;2023-03-05T07:43:56;4.80;99.90
7206;DHT22;3644;53.480;10.004;2023-03-05T07:46:25;4.70;99.90
7206;DHT22;3644;53.480;10.004;2023-03-05T07:48:51;4.80;99.90
7206;DHT22;3644;53.480;10.004;2023-03-05T07:51:20;4.80;99.90
7206;DHT22;3644;53.480;10.004;2023-03-05T07:53:48;4.70;99.90
7206;DHT22;3644;53.480;10.004;2023-03-05T07:56:30;4.80;99.90
7206;DHT22;3644;53.480;10.004;2023-03-05T07:58:57;4.60;99.90
7206;DHT22;3644;53.480;10.004;2023-03-05T08:01:23;4.70;99.90
7206;DHT22;3644;53.480;10.004;2023-03-05T08:03:48;4.70;99.90
7206;DHT22;3644;53.480;10.004;2023-03-05T08:06:14;4.80;99.90
7206;DHT22;3644;53.480;10.004;2023-03-05T08:08:40;4.90;99.90
7206;DHT22;3644;53.480;10.004;2023-03-05T08:11:10;5.00;99.90
7206;DHT22;3644;53.480;10.004;2023-03-05T08:13:37;5.10;99.90
7206;DHT22;3644;53.480;10.004;2023-03-05T08:16:05;5.20;99.90
7206;DHT22;3644;53.480;10.004;2023-03-05T08:18:31;5.40;99.90
7206;DHT22;3644;53.480;10.004;2023-03-05T08:20:56;5.30;99.90
7206;DHT22;3644;53.480;10.004;2023-03-05T08:23:22;5.40;99.90
7206;DHT22;3644;53.480;10.004;2023-03-05T08:25:47;5.30;99.90
7206;DHT22;3644;53.480;10.004;2023-03-05T08:28:13;5.30;99.90
7206;DHT22;3644;53.480;10.004;2023-03-05T08:30:40;5.30;99.90
7206;DHT22;3644;53.480;10.004;2023-03-05T08:33:06;5.10;99.90
7206;DHT22;3644;53.480;10.004;2023-03-05T08:35:32;5.10;99.90
7206;DHT22;3644;53.480;10.004;2023-03-05T08:37:57;5.20;99.90
7206;DHT22;3644;53.480;10.004;2023-03-05T08:40:23;5.10;99.90
7206;DHT22;3644;53.480;10.004;2023-03-05T08:42:48;5.00;99.90
7206;DHT22;3644;53.480;10.004;2023-03-05T08:45:16;5.20;99.90
7206;DHT22;3644;53.480;10.004;2023-03-05T08:47:41;5.20;99.90
7206;DHT22;3644;53.480;10.004;2023-03-05T08:50:07;5.20;99.90
7206;DHT22;3644;53.480;10.004;2023-03-05T08:52:33;5.50;99.90
7206;DHT22;3644;53.480;10.004;2023-03-05T08:54:59;5.60;99.90
7206;DHT22;3644;53.480;10.004;2023-03-05T08:57:24;5.50;99.90
7206;DHT22;3644;53.480;10.004;2023-03-05T08:59:50;5.50;99.90
7206;DHT22;3644;53.480;10.004;2023-03-05T09:02:15;5.50;99.90
7206;DHT22;3644;53.480;10.004;2023-03-05T09:04:41;5.50;99.90
7206;DHT22;3644;53.480;10.004;2023-03-05T09:07:07;5.40;99.90
7206;DHT22;3644;53.480;10.004;2023-03-05T09:09:33;5.40;99.90
7206;DHT22;3644;53.480;10.004;2023-03-05T09:11:59;5.50;99.90
7206;DHT22;3644;53.480;10.004;2023-03-05T09:14:25;5.70;99.90
7206;DHT22;3644;53.480;10.004;2023-03-05T09:16:53;5.90;99.90
7206;DHT22;3644;53.480;10.004;2023-03-05T09:19:18;6.00;99.90
7206;DHT22;3644;53.480;10.004;2023-03-05T09:21:44;6.20;99.90
7206;DHT22;3644;53.480;10.004;2023-03-05T09:24:09;6.30;99.90
7206;DHT22;3644;53.480;10.004;2023-03-05T09:26:36;6.30;99.90
7206;DHT22;3644;53.480;10.004;2023-03-05T09:29:02;6.20;99.90
7206;DHT22;3644;53.480;10.004;2023-03-05T09:31:28;6.40;99.90
7206;DHT22;3644;53.480;10.004;2023-03-05T09:33:53;6.40;99.90
7206;DHT22;3644;53.480;10.004;2023-03-05T09:36:27;6.50;99.90
7206;DHT22;3644;53.480;10.004;2023-03-05T09:38:53;6.40;99.90
7206;DHT22;3644;53.480;10.004;2023-03-05T09:41:50;6.40;99.90
7206;DHT22;3644;53.480;10.004;2023-03-05T09:47:07;6.40;99.90
7206;DHT22;3644;53.480;10.004;2023-03-05T09:52:41;6.70;99.90
7206;DHT22;3644;53.480;10.004;2023-03-05T09:55:13;6.80;99.90
7206;DHT22;3644;53.480;10.004;2023-03-05T09:57:44;6.90;99.90
7206;DHT22;3644;53.480;10.004;2023-03-05T10:00:36;7.00;99.90
7206;DHT22;3644;53.480;10.004;2023-03-05T10:03:31;6.70;99.90
7206;DHT22;3644;53.480;10.004;2023-03-05T10:08:32;6.10;99.90
7206;DHT22;3644;53.480;10.004;2023-03-05T10:11:01;6.30;99.90
7206;DHT22;3644;53.480;10.004;2023-03-05T10:13:33;6.30;99.90
7206;DHT22;3644;53.480;10.004;2023-03-05T10:27:20;6.50;99.90
7206;DHT22;3644;53.480;10.004;2023-03-05T10:30:22;6.50;99.90
7206;DHT22;3644;53.480;10.004;2023-03-05T10:33:04;6.40;99.90
7206;DHT22;3644;53.480;10.004;2023-03-05T10:35:46;6.40;99.90
7206;DHT22;3644;53.480;10.004;2023-03-05T10:38:31;6.40;99.90
7206;DHT22;3644;53.480;10.004;2023-03-05T10:41:09;6.40;99.90
7206;DHT22;3644;53.480;10.004;2023-03-05T10:43:51;6.20;99.90
7206;DHT22;3644;53.480;10.004;2023-03-05T10:46:21;6.20;99.90
7206;DHT22;3644;53.480;10.004;2023-03-05T10:48:54;5.80;99.90
7206;DHT22;3644;53.480;10.004;2023-03-05T10:53:57;5.80;99.90
7206;DHT22;3644;53.480;10.004;2023-03-05T10:56:25;5.70;99.90
7206;DHT22;3644;53.480;10.004;2023-03-05T10:58:52;6.00;99.90
7206;DHT22;3644;53.480;10.004;2023-03-05T11:01:22;6.20;99.90
7206;DHT22;3644;53.480;10.004;2023-03-05T11:04:02;6.40;99.90
7206;DHT22;3644;53.480;10.004;2023-03-05T11:12:00;6.60;99.90
7206;DHT22;3644;53.480;10.004;2023-03-05T11:14:27;6.30;99.90
7206;DHT22;3644;53.480;10.004;2023-03-05T11:16:59;6.60;99.90
7206;DHT22;3644;53.480;10.004;2023-03-05T11:19:27;6.60;99.90
7206;DHT22;3644;53.480;10.004;2023-03-05T11:22:14;6.70;99.90
7206;DHT22;3644;53.480;10.004;2023-03-05T11:24:40;7.00;99.90
7206;DHT22;3644;53.480;10.004;2023-03-05T11:27:29;7.10;99.90
7206;DHT22;3644;53.480;10.004;2023-03-05T11:29:56;7.30;99.90
7206;DHT22;3644;53.480;10.004;2023-03-05T11:32:24;7.30;99.90
7206;DHT22;3644;53.480;10.004;2023-03-05T11:34:50;7.10;99.90
7206;DHT22;3644;53.480;10.004;2023-03-05T11:37:28;7.00;99.90
7206;DHT22;3644;53.480;10.004;2023-03-05T11:40:21;7.10;99.90
7206;DHT22;3644;53.480;10.004;2023-03-05T11:42:54;7.30;99.90
7206;DHT22;3644;53.480;10.004;2023-03-05T11:45:20;7.40;99.90
7206;DHT22;3644;53.480;10.004;2023-03-05T11:47:58;7.20;99.90
7206;DHT22;3644;53.480;10.004;2023-03-05T11:50:33;7.30;99.90
7206;DHT22;3644;53.480;10.004;2023-03-05T11:53:17;7.20;99.90
7206;DHT22;3644;53.480;10.004;2023-03-05T11:55:48;7.10;99.90
7206;DHT22;3644;53.480;10.004;2023-03-05T11:58:34;6.90;99.90
7206;DHT22;3644;53.480;10.004;2023-03-05T12:02:10;7.10;99.90
7206;DHT22;3644;53.480;10.004;2023-03-05T12:04:03;7.20;99.90
7206;DHT22;3644;53.480;10.004;2023-03-05T12:09:05;7.40;99.90
7206;DHT22;3644;53.480;10.004;2023-03-05T12:11:32;7.40;99.90
7206;DHT22;3644;53.480;10.004;2023-03-05T12:21:41;7.80;99.90
7206;DHT22;3644;53.480;10.004;2023-03-05T12:29:49;8.00;99.90
7206;DHT22;3644;53.480;10.004;2023-03-05T12:42:39;7.90;99.90
7206;DHT22;3644;53.480;10.004;2023-03-05T12:53:09;7.90;99.90
7206;DHT22;3644;53.480;10.004;2023-03-05T13:06:59;7.40;99.90
7206;DHT22;3644;53.480;10.004;2023-03-05T13:09:27;7.50;99.90
7206;DHT22;3644;53.480;10.004;2023-03-05T13:11:56;7.50;99.90
7206;DHT22;3644;53.480;10.004;2023-03-05T13:16:54;7.70;99.90
7206;DHT22;3644;53.480;10.004;2023-03-05T13:19:20;7.90;99.90
7206;DHT22;3644;53.480;10.004;2023-03-05T13:21:54;8.00;99.90
7206;DHT22;3644;53.480;10.004;2023-03-05T13:24:20;8.10;99.90
7206;DHT22;3644;53.480;10.004;2023-03-05T13:26:46;7.90;99.90
7206;DHT22;3644;53.480;10.004;2023-03-05T13:29:17;7.90;99.90
7206;DHT22;3644;53.480;10.004;2023-03-05T13:31:45;8.00;99.90
7206;DHT22;3644;53.480;10.004;2023-03-05T13:34:21;7.70;99.90
7206;DHT22;3644;53.480;10.004;2023-03-05T13:39:30;7.80;99.90
7206;DHT22;3644;53.480;10.004;2023-03-05T13:42:05;7.80;99.90
7206;DHT22;3644;53.480;10.004;2023-03-05T13:44:33;7.80;99.90
7206;DHT22;3644;53.480;10.004;2023-03-05T13:47:19;8.00;99.90
7206;DHT22;3644;53.480;10.004;2023-03-05T13:49:46;8.20;99.90
7206;DHT22;3644;53.480;10.004;2023-03-05T13:52:21;8.10;99.90
7206;DHT22;3644;53.480;10.004;2023-03-05T13:54:47;8.10;99.90
7206;DHT22;3644;53.480;10.004;2023-03-05T13:57:40;7.90;99.90
7206;DHT22;3644;53.480;10.004;2023-03-05T14:00:28;7.80;99.90
7206;DHT22;3644;53.480;10.004;2023-03-05T14:02:57;7.90;99.90
7206;DHT22;3644;53.480;10.004;2023-03-05T14:05:23;7.80;99.90
7206;DHT22;3644;53.480;10.004;2023-03-05T14:07:50;7.70;99.90
7206;DHT22;3644;53.480;10.004;2023-03-05T14:10:36;7.60;99.90
7206;DHT22;3644;53.480;10.004;2023-03-05T14:13:05;7.60;99.90
7206;DHT22;3644;53.480;10.004;2023-03-05T14:15:35;7.70;99.90
7206;DHT22;3644;53.480;10.004;2023-03-05T14:18:15;7.60;99.90
7206;DHT22;3644;53.480;10.004;2023-03-05T14:21:01;7.70;99.90
7206;DHT22;3644;53.480;10.004;2023-03-05T14:23:42;7.70;99.90
7206;DHT22;3644;53.480;10.004;2023-03-05T14:28:50;7.40;99.90
7206;DHT22;3644;53.480;10.004;2023-03-05T14:31:17;7.40;99.90
7206;DHT22;3644;53.480;10.004;2023-03-05T14:33:43;7.30;99.90
7206;DHT22;3644;53.480;10.004;2023-03-05T14:36:09;7.50;99.90
7206;DHT22;3644;53.480;10.004;2023-03-05T14:38:39;7.60;99.90
7206;DHT22;3644;53.480;10.004;2023-03-05T14:41:36;7.50;99.90
7206;DHT22;3644;53.480;10.004;2023-03-05T14:44:12;7.60;99.90
7206;DHT22;3644;53.480;10.004;2023-03-05T14:46:38;7.50;99.90
7206;DHT22;3644;53.480;10.004;2023-03-05T14:49:03;7.40;99.90
7206;DHT22;3644;53.480;10.004;2023-03-05T14:51:30;7.30;99.90
7206;DHT22;3644;53.480;10.004;2023-03-05T14:53:56;7.40;99.90
7206;DHT22;3644;53.480;10.004;2023-03-05T14:56:25;7.60;99.90
7206;DHT22;3644;53.480;10.004;2023-03-05T14:58:52;7.60;99.90
7206;DHT22;3644;53.480;10.004;2023-03-05T15:01:17;7.50;99.90
7206;DHT22;3644;53.480;10.004;2023-03-05T15:03:43;7.50;99.90
7206;DHT22;3644;53.480;10.004;2023-03-05T15:06:17;7.70;99.90
7206;DHT22;3644;53.480;10.004;2023-03-05T15:08:44;7.70;99.90
7206;DHT22;3644;53.480;10.004;2023-03-05T15:11:10;7.60;99.90
7206;DHT22;3644;53.480;10.004;2023-03-05T15:13:35;7.50;99.90
7206;DHT22;3644;53.480;10.004;2023-03-05T15:16:03;7.70;99.90
7206;DHT22;3644;53.480;10.004;2023-03-05T15:18:29;7.70;99.90
7206;DHT22;3644;53.480;10.004;2023-03-05T15:20:55;7.50;99.90
7206;DHT22;3644;53.480;10.004;2023-03-05T15:23:22;7.60;99.90
7206;DHT22;3644;53.480;10.004;2023-03-05T15:25:48;7.70;99.90
7206;DHT22;3644;53.480;10.004;2023-03-05T15:28:14;7.70;99.90
7206;DHT22;3644;53.480;10.004;2023-03-05T15:30:43;7.40;99.90
7206;DHT22;3644;53.480;10.004;2023-03-05T15:33:12;7.40;99.90
7206;DHT22;3644;53.480;10.004;2023-03-05T15:35:38;7.30;99.90
7206;DHT22;3644;53.480;10.004;2023-03-05T15:38:04;7.10;99.90
7206;DHT22;3644;53.480;10.004;2023-03-05T15:40:30;7.20;99.90
7206;DHT22;3644;53.480;10.004;2023-03-05T15:42:56;7.10;99.90
7206;DHT22;3644;53.480;10.004;2023-03-05T15:45:23;7.20;99.90
7206;DHT22;3644;53.480;10.004;2023-03-05T15:47:49;7.20;99.90
7206;DHT22;3644;53.480;10.004;2023-03-05T15:50:15;7.00;99.90
7206;DHT22;3644;53.480;10.004;2023-03-05T15:52:41;7.10;99.90
7206;DHT22;3644;53.480;10.004;2023-03-05T15:55:07;7.10;99.90
7206;DHT22;3644;53.480;10.004;2023-03-05T15:57:35;7.00;99.90
7206;DHT22;3644;53.480;10.004;2023-03-05T16:00:04;7.10;99.90
7206;DHT22;3644;53.480;10.004;2023-03-05T16:02:30;6.90;99.90
7206;DHT22;3644;53.480;10.004;2023-03-05T16:04:56;6.90;99.90
7206;DHT22;3644;53.480;10.004;2023-03-05T16:07:21;6.80;99.90
7206;DHT22;3644;53.480;10.004;2023-03-05T16:09:48;6.70;99.90
7206;DHT22;3644;53.480;10.004;2023-03-05T16:12:19;6.80;99.90
7206;DHT22;3644;53.480;10.004;2023-03-05T16:14:46;6.60;99.90
7206;DHT22;3644;53.480;10.004;2023-03-05T16:17:13;6.60;99.90
7206;DHT22;3644;53.480;10.004;2023-03-05T16:19:41;6.60;99.90
7206;DHT22;3644;53.480;10.004;2023-03-05T16:22:08;6.60;99.90
7206;DHT22;3644;53.480;10.004;2023-03-05T16:24:34;6.50;99.90
7206;DHT22;3644;53.480;10.004;2023-03-05T16:27:00;6.40;99.90
7206;DHT22;3644;53.480;10.004;2023-03-05T16:29:25;6.50;99.90
7206;DHT22;3644;53.480;10.004;2023-03-05T16:31:53;6.60;99.90
7206;DHT22;3644;53.480;10.004;2023-03-05T16:34:19;6.70;99.90
7206;DHT22;3644;53.480;10.004;2023-03-05T16:36:48;6.60;99.90
7206;DHT22;3644;53.480;10.004;2023-03-05T16:39:17;6.40;99.90
7206;DHT22;3644;53.480;10.004;2023-03-05T16:41:42;6.50;99.90
7206;DHT22;3644;53.480;10.004;2023-03-05T16:44:08;6.60;99.90
7206;DHT22;3644;53.480;10.004;2023-03-05T16:46:33;6.60;99.90
7206;DHT22;3644;53.480;10.004;2023-03-05T16:48:59;6.50;99.90
7206;DHT22;3644;53.480;10.004;2023-03-05T16:51:25;6.30;99.90
7206;DHT22;3644;53.480;10.004;2023-03-05T16:53:51;6.30;99.90
7206;DHT22;3644;53.480;10.004;2023-03-05T16:56:17;6.40;99.90
7206;DHT22;3644;53.480;10.004;2023-03-05T16:58:43;6.20;99.90
7206;DHT22;3644;53.480;10.004;2023-03-05T17:01:15;6.20;99.90
7206;DHT22;3644;53.480;10.004;2023-03-05T17:03:41;6.20;99.90
7206;DHT22;3644;53.480;10.004;2023-03-05T17:06:16;6.30;99.90
7206;DHT22;3644;53.480;10.004;2023-03-05T17:08:43;6.40;99.90
7206;DHT22;3644;53.480;10.004;2023-03-05T17:11:08;6.40;99.90
7206;DHT22;3644;53.480;10.004;2023-03-05T17:13:35;6.40;99.90
7206;DHT22;3644;53.480;10.004;2023-03-05T17:16:01;6.40;99.90
7206;DHT22;3644;53.480;10.004;2023-03-05T17:18:26;6.40;99.90
7206;DHT22;3644;53.480;10.004;2023-03-05T17:20:52;6.10;99.90
7206;DHT22;3644;53.480;10.004;2023-03-05T17:23:18;6.00;99.90
7206;DHT22;3644;53.480;10.004;2023-03-05T17:25:44;6.00;99.90
7206;DHT22;3644;53.480;10.004;2023-03-05T17:28:09;6.10;99.90
7206;DHT22;3644;53.480;10.004;2023-03-05T17:30:35;6.00;99.90
7206;DHT22;3644;53.480;10.004;2023-03-05T17:33:02;6.20;99.90
7206;DHT22;3644;53.480;10.004;2023-03-05T17:35:29;6.30;99.90